createdAt,value
2019-05-19T00:01:45.916Z,9.23
2019-05-19T00:04:17.238Z,9.27
2019-05-19T00:06:48.313Z,9.50
2019-05-19T00:09:19.345Z,10.17
2019-05-19T00:11:50.361Z,9.33
2019-05-19T00:14:21.607Z,9.20
2019-05-19T00:16:53.003Z,9.27
2019-05-19T00:19:26.668Z,9.47
2019-05-19T00:21:57.049Z,8.90
2019-05-19T00:24:28.712Z,9.37
2019-05-19T00:26:59.805Z,9.90
2019-05-19T00:29:30.948Z,8.90
2019-05-19T00:32:02.297Z,10.77
2019-05-19T00:34:33.700Z,9.47
2019-05-19T00:37:04.691Z,9.35
2019-05-19T00:39:36.239Z,9.17
2019-05-19T00:42:07.414Z,9.73
2019-05-19T00:44:38.703Z,9.50
2019-05-19T00:47:09.861Z,9.35
2019-05-19T00:49:41.883Z,9.38
2019-05-19T00:52:13.084Z,8.90
2019-05-19T00:54:44.866Z,9.37
2019-05-19T00:57:16.437Z,9.60
2019-05-19T00:59:47.604Z,9.53
2019-05-19T01:02:18.619Z,9.03
2019-05-19T01:04:49.862Z,8.97
2019-05-19T01:07:20.834Z,9.30
2019-05-19T01:09:51.865Z,9.43
2019-05-19T01:12:22.817Z,9.30
2019-05-19T01:14:54.337Z,9.27
2019-05-19T01:17:25.441Z,10.13
2019-05-19T01:19:56.522Z,9.77
2019-05-19T01:22:28.904Z,9.85
2019-05-19T01:24:59.886Z,10.17
2019-05-19T01:27:31.220Z,10.47
2019-05-19T01:30:02.838Z,9.80
2019-05-19T01:32:33.966Z,10.00
2019-05-19T01:35:05.156Z,10.10
2019-05-19T01:37:36.796Z,11.20
2019-05-19T01:40:08.245Z,10.27
2019-05-19T01:42:39.375Z,11.40
2019-05-19T01:45:11.329Z,10.08
2019-05-19T01:47:42.429Z,11.50
2019-05-19T01:50:18.505Z,10.80
2019-05-19T01:52:46.796Z,10.17
2019-05-19T01:55:18.079Z,11.17
2019-05-19T01:57:49.699Z,11.37
2019-05-19T02:00:20.854Z,10.67
2019-05-19T02:02:51.963Z,11.03
2019-05-19T02:05:23.004Z,10.13
2019-05-19T02:07:54.080Z,10.53
2019-05-19T02:10:25.656Z,10.70
2019-05-19T02:12:56.917Z,9.93
2019-05-19T02:15:29.339Z,10.95
2019-05-19T02:18:00.642Z,10.10
2019-05-19T02:20:33.576Z,10.87
2019-05-19T02:23:04.427Z,9.07
2019-05-19T02:25:35.684Z,10.00
2019-05-19T02:28:08.215Z,9.60
2019-05-19T02:30:39.629Z,9.63
2019-05-19T02:33:10.664Z,9.33
2019-05-19T02:35:41.906Z,9.53
2019-05-19T02:38:13.104Z,10.27
2019-05-19T02:40:48.418Z,9.93
2019-05-19T02:43:21.646Z,9.07
2019-05-19T02:45:56.607Z,9.43
2019-05-19T02:48:29.265Z,10.33
2019-05-19T02:51:01.088Z,10.40
2019-05-19T02:53:33.092Z,11.57
2019-05-19T02:56:04.582Z,10.97
2019-05-19T02:58:36.373Z,10.13
2019-05-19T03:01:07.638Z,10.33
2019-05-19T03:03:39.006Z,10.58
2019-05-19T03:06:10.016Z,10.70
2019-05-19T03:08:41.307Z,10.17
2019-05-19T03:11:12.812Z,9.43
2019-05-19T03:13:43.791Z,10.60
2019-05-19T03:16:14.842Z,9.03
2019-05-19T03:18:45.828Z,10.53
2019-05-19T03:21:16.833Z,10.97
2019-05-19T03:23:49.075Z,11.00
2019-05-19T03:26:20.377Z,10.17
2019-05-19T03:28:51.732Z,10.20
2019-05-19T03:31:29.800Z,11.53
2019-05-19T03:34:00.860Z,10.13
2019-05-19T03:36:31.857Z,10.53
2019-05-19T03:39:03.404Z,10.53
2019-05-19T03:41:35.133Z,10.25
2019-05-19T03:44:06.385Z,10.87
2019-05-19T03:46:37.368Z,10.70
2019-05-19T03:49:08.715Z,11.37
2019-05-19T03:51:39.990Z,11.77
2019-05-19T03:54:11.368Z,11.57
2019-05-19T03:56:43.155Z,11.77
2019-05-19T03:59:14.196Z,10.83
2019-05-19T04:01:45.243Z,12.23
2019-05-19T04:04:16.611Z,11.37
2019-05-19T04:06:47.963Z,11.53
2019-05-19T04:09:18.967Z,12.23
2019-05-19T04:11:49.992Z,11.90
2019-05-19T04:14:20.976Z,11.63
2019-05-19T04:16:52.400Z,12.20
2019-05-19T04:19:23.368Z,12.03
2019-05-19T04:21:54.478Z,11.43
2019-05-19T04:24:25.458Z,11.50
2019-05-19T04:26:58.058Z,11.50
2019-05-19T04:29:29.600Z,12.50
2019-05-19T04:32:00.577Z,11.90
2019-05-19T04:34:32.897Z,11.73
2019-05-19T04:37:05.632Z,11.28
2019-05-19T04:39:37.299Z,11.93
2019-05-19T04:42:08.604Z,12.20
2019-05-19T04:44:40.058Z,11.97
2019-05-19T04:47:11.153Z,12.90
2019-05-19T04:49:42.138Z,12.73
2019-05-19T04:52:13.466Z,12.40
2019-05-19T04:54:44.620Z,12.00
2019-05-19T04:57:15.823Z,13.18
2019-05-19T04:59:47.216Z,13.00
2019-05-19T05:02:18.624Z,12.73
2019-05-19T05:04:50.005Z,12.30
2019-05-19T05:07:21.408Z,13.13
2019-05-19T05:09:52.837Z,12.77
2019-05-19T05:12:23.822Z,13.23
2019-05-19T05:14:55.838Z,13.70
2019-05-19T05:17:27.326Z,11.13
2019-05-19T05:19:59.335Z,11.03
2019-05-19T05:22:30.389Z,9.33
2019-05-19T05:25:01.738Z,9.90
2019-05-19T05:27:32.838Z,9.50
2019-05-19T05:30:04.112Z,10.80
2019-05-19T05:32:35.147Z,10.93
2019-05-19T05:35:07.437Z,9.45
2019-05-19T05:37:38.746Z,8.13
2019-05-19T05:40:10.471Z,8.90
2019-05-19T05:42:41.943Z,8.37
2019-05-19T05:45:13.338Z,7.70
2019-05-19T05:47:44.363Z,8.03
2019-05-19T05:50:15.745Z,8.13
2019-05-19T05:52:47.073Z,8.67
2019-05-19T05:55:18.272Z,8.43
2019-05-19T05:57:49.394Z,7.80
2019-05-19T06:00:22.709Z,8.17
2019-05-19T06:02:53.965Z,7.23
2019-05-19T06:05:25.332Z,7.70
2019-05-19T06:07:56.518Z,7.27
2019-05-19T06:10:28.229Z,7.50
2019-05-19T06:12:59.571Z,6.77
2019-05-19T06:15:30.646Z,7.03
2019-05-19T06:18:02.037Z,6.97
2019-05-19T06:20:33.201Z,7.37
2019-05-19T06:23:04.656Z,6.85
2019-05-19T06:25:36.271Z,6.23
2019-05-19T06:28:07.365Z,5.93
2019-05-19T06:30:38.451Z,6.20
2019-05-19T06:33:09.972Z,7.00
2019-05-19T06:35:45.418Z,5.43
2019-05-19T06:38:20.598Z,5.57
2019-05-19T06:40:51.849Z,5.63
2019-05-19T06:43:23.071Z,4.90
2019-05-19T06:45:54.443Z,5.27
2019-05-19T06:48:25.660Z,4.10
2019-05-19T06:50:56.805Z,4.70
2019-05-19T06:53:28.139Z,4.60
2019-05-19T06:55:59.676Z,4.53
2019-05-19T06:58:31.491Z,4.30
2019-05-19T07:01:02.847Z,4.67
2019-05-19T07:03:34.243Z,4.40
2019-05-19T07:06:05.413Z,5.10
2019-05-19T07:08:36.682Z,4.60
2019-05-19T07:11:07.757Z,4.37
2019-05-19T07:13:39.592Z,4.17
2019-05-19T07:16:10.719Z,4.60
2019-05-19T07:18:41.822Z,4.53
2019-05-19T07:21:18.110Z,4.77
2019-05-19T07:23:50.519Z,5.07
2019-05-19T07:26:22.160Z,4.77
2019-05-19T07:28:53.485Z,4.53
2019-05-19T07:31:24.749Z,5.30
2019-05-19T07:33:55.701Z,5.93
2019-05-19T07:36:27.179Z,4.47
2019-05-19T07:38:58.436Z,6.30
2019-05-19T07:41:30.196Z,5.97
2019-05-19T07:44:01.641Z,6.20
2019-05-19T07:46:32.670Z,6.27
2019-05-19T07:49:03.768Z,6.63
2019-05-19T07:51:35.288Z,7.20
2019-05-19T07:54:07.569Z,8.73
2019-05-19T07:56:39.104Z,8.37
2019-05-19T07:59:14.194Z,9.00
2019-05-19T08:01:45.249Z,8.53
2019-05-19T08:04:16.389Z,9.58
2019-05-19T08:06:48.150Z,10.13
2019-05-19T08:09:19.203Z,9.57
2019-05-19T08:11:50.263Z,9.27
2019-05-19T08:14:21.333Z,10.23
2019-05-19T08:16:53.099Z,10.77
2019-05-19T08:19:24.091Z,10.10
2019-05-19T08:21:55.154Z,9.53
2019-05-19T08:24:26.299Z,10.70
2019-05-19T08:26:57.580Z,10.33
2019-05-19T08:29:29.274Z,10.87
2019-05-19T08:32:00.860Z,11.47
2019-05-19T08:34:32.241Z,10.97
2019-05-19T08:37:03.376Z,11.10
2019-05-19T08:39:35.081Z,10.90
2019-05-19T08:42:06.094Z,12.07
2019-05-19T08:44:37.136Z,11.73
2019-05-19T08:47:08.111Z,12.85
2019-05-19T08:49:39.455Z,10.70
2019-05-19T08:52:10.814Z,12.23
2019-05-19T08:54:42.172Z,11.33
2019-05-19T08:57:13.226Z,12.87
2019-05-19T08:59:44.370Z,12.25
2019-05-19T09:02:15.685Z,12.70
2019-05-19T09:04:46.950Z,13.05
2019-05-19T09:07:18.330Z,11.28
2019-05-19T09:09:50.061Z,13.47
2019-05-19T09:12:21.594Z,12.67
2019-05-19T09:14:52.706Z,13.10
2019-05-19T09:17:24.179Z,10.80
2019-05-19T09:19:58.442Z,10.87
2019-05-19T09:22:30.893Z,11.47
2019-05-19T09:25:02.276Z,11.13
2019-05-19T09:27:33.644Z,11.83
2019-05-19T09:30:05.670Z,10.70
2019-05-19T09:32:38.970Z,11.70
2019-05-19T09:35:10.192Z,12.07
2019-05-19T09:37:41.208Z,11.70
2019-05-19T09:40:12.605Z,10.60
2019-05-19T09:42:44.156Z,8.60
2019-05-19T09:45:15.553Z,8.77
2019-05-19T09:47:47.513Z,8.13
2019-05-19T09:50:18.987Z,9.17
2019-05-19T09:52:50.063Z,8.80
2019-05-19T09:55:21.089Z,9.03
2019-05-19T09:57:52.782Z,7.80
2019-05-19T10:00:23.933Z,7.90
2019-05-19T10:02:55.252Z,7.53
2019-05-19T10:05:26.241Z,6.57
2019-05-19T10:07:57.615Z,7.43
2019-05-19T10:10:58.808Z,6.90
2019-05-19T10:13:29.901Z,7.73
2019-05-19T10:16:01.783Z,6.92
2019-05-19T10:18:32.809Z,7.03
2019-05-19T10:21:03.991Z,7.20
2019-05-19T10:23:34.992Z,6.97
2019-05-19T10:26:06.029Z,7.42
2019-05-19T10:28:37.120Z,6.50
2019-05-19T10:31:08.207Z,7.12
2019-05-19T10:33:39.483Z,8.28
2019-05-19T10:36:10.474Z,7.55
2019-05-19T10:38:41.718Z,7.07
2019-05-19T10:41:13.041Z,7.22
2019-05-19T10:43:44.436Z,6.53
2019-05-19T10:46:15.574Z,7.12
2019-05-19T10:48:47.664Z,7.83
2019-05-19T10:51:18.937Z,7.53
2019-05-19T10:53:50.319Z,7.78
2019-05-19T10:56:22.073Z,7.33
2019-05-19T10:58:53.525Z,7.90
2019-05-19T11:01:24.600Z,7.70
2019-05-19T11:03:57.462Z,7.37
2019-05-19T11:06:29.027Z,7.90
2019-05-19T11:09:00.414Z,8.80
2019-05-19T11:11:32.761Z,8.70
2019-05-19T11:14:03.954Z,9.17
2019-05-19T11:16:35.328Z,7.57
2019-05-19T11:19:06.377Z,7.70
2019-05-19T11:21:37.745Z,9.60
2019-05-19T11:24:08.849Z,8.80
2019-05-19T11:26:39.921Z,8.10
2019-05-19T11:29:10.923Z,8.10
2019-05-19T11:31:42.270Z,7.28
2019-05-19T11:34:13.314Z,6.77
2019-05-19T11:36:44.361Z,8.38
2019-05-19T11:39:15.704Z,8.40
2019-05-19T11:41:47.013Z,8.23
2019-05-19T11:44:18.308Z,10.17
2019-05-19T11:46:49.375Z,9.80
2019-05-19T11:49:20.844Z,8.20
2019-05-19T11:51:51.904Z,7.73
2019-05-19T11:54:23.139Z,8.30
2019-05-19T11:56:54.385Z,7.90
2019-05-19T11:59:25.390Z,8.43
2019-05-19T12:01:56.577Z,7.73
2019-05-19T12:04:27.640Z,7.83
2019-05-19T12:06:59.788Z,8.77
2019-05-19T12:09:31.059Z,6.83
2019-05-19T12:12:02.140Z,6.73
2019-05-19T12:14:34.412Z,6.92
2019-05-19T12:17:06.556Z,7.55
2019-05-19T12:19:37.913Z,6.60
2019-05-19T12:22:09.214Z,6.95
2019-05-19T12:24:40.201Z,6.57
2019-05-19T12:27:11.185Z,5.87
2019-05-19T12:29:42.176Z,7.20
2019-05-19T12:32:13.439Z,6.42
2019-05-19T12:34:45.397Z,6.73
2019-05-19T12:37:16.355Z,6.70
2019-05-19T12:39:47.342Z,6.57
2019-05-19T12:42:18.394Z,6.45
2019-05-19T12:44:50.004Z,6.58
2019-05-19T12:47:21.658Z,5.77
2019-05-19T12:49:52.901Z,6.30
2019-05-19T12:52:24.611Z,4.97
2019-05-19T12:54:55.638Z,4.72
2019-05-19T12:57:27.038Z,4.80
2019-05-19T12:59:58.198Z,5.03
2019-05-19T13:02:29.427Z,4.95
2019-05-19T13:05:05.480Z,5.08
2019-05-19T13:07:33.446Z,5.00
2019-05-19T13:10:05.860Z,3.83
2019-05-19T13:12:37.163Z,3.80
2019-05-19T13:15:08.501Z,3.80
2019-05-19T13:17:39.577Z,4.00
2019-05-19T13:20:10.869Z,3.47
2019-05-19T13:22:42.457Z,3.87
2019-05-19T13:25:13.564Z,4.42
2019-05-19T13:27:44.848Z,4.13
2019-05-19T13:30:16.098Z,4.83
2019-05-19T13:32:47.202Z,5.70
2019-05-19T13:35:18.274Z,5.28
2019-05-19T13:37:49.723Z,5.37
2019-05-19T13:40:20.803Z,5.97
2019-05-19T13:42:51.772Z,5.85
2019-05-19T13:45:23.159Z,5.53
2019-05-19T13:47:54.422Z,5.30
2019-05-19T13:50:25.504Z,6.37
2019-05-19T13:52:56.841Z,7.08
2019-05-19T13:55:28.323Z,5.78
2019-05-19T13:57:59.308Z,5.77
2019-05-19T14:00:30.344Z,6.40
2019-05-19T14:03:01.407Z,6.47
2019-05-19T14:05:32.680Z,7.53
2019-05-19T14:08:03.692Z,4.78
2019-05-19T14:10:35.416Z,6.20
2019-05-19T14:13:06.432Z,5.97
2019-05-19T14:15:37.856Z,6.40
2019-05-19T14:18:09.575Z,6.70
2019-05-19T14:20:40.636Z,6.22
2019-05-19T14:23:11.893Z,6.05
2019-05-19T14:25:42.993Z,5.03
2019-05-19T14:28:14.301Z,6.00
2019-05-19T14:30:45.675Z,5.80
2019-05-19T14:33:16.942Z,5.22
2019-05-19T14:35:48.216Z,5.03
2019-05-19T14:38:19.666Z,4.70
2019-05-19T14:40:51.232Z,4.60
2019-05-19T14:43:23.014Z,5.10
2019-05-19T14:45:54.337Z,4.62
2019-05-19T14:48:25.573Z,3.92
2019-05-19T14:50:57.015Z,4.50
2019-05-19T14:53:29.240Z,4.77
2019-05-19T14:56:00.799Z,5.03
2019-05-19T14:58:31.819Z,4.17
2019-05-19T15:01:03.089Z,4.47
2019-05-19T15:03:34.214Z,4.70
2019-05-19T15:06:05.336Z,4.65
2019-05-19T15:08:36.944Z,4.58
2019-05-19T15:11:07.914Z,4.37
2019-05-19T15:13:39.434Z,5.37
2019-05-19T15:16:10.623Z,4.83
2019-05-19T15:18:41.943Z,5.00
2019-05-19T15:21:13.620Z,4.85
2019-05-19T15:23:44.952Z,5.13
2019-05-19T15:26:16.153Z,5.27
2019-05-19T15:28:47.303Z,5.17
2019-05-19T15:31:20.490Z,5.00
2019-05-19T15:33:51.971Z,5.10
2019-05-19T15:36:23.325Z,4.83
2019-05-19T15:38:54.808Z,5.70
2019-05-19T15:41:26.087Z,5.20
2019-05-19T15:43:57.062Z,5.53
2019-05-19T15:46:28.427Z,5.97
2019-05-19T15:48:59.379Z,5.87
2019-05-19T15:51:37.124Z,5.77
2019-05-19T15:54:03.882Z,5.10
2019-05-19T15:56:34.942Z,5.63
2019-05-19T15:59:06.394Z,4.93
2019-05-19T16:01:37.403Z,5.17
2019-05-19T16:04:08.349Z,6.53
2019-05-19T16:06:39.380Z,5.77
2019-05-19T16:09:10.719Z,5.33
2019-05-19T16:11:41.972Z,5.53
2019-05-19T16:14:14.520Z,5.28
2019-05-19T16:16:45.484Z,5.30
2019-05-19T16:19:16.753Z,5.20
2019-05-19T16:21:48.081Z,5.20
2019-05-19T16:24:19.304Z,4.83
2019-05-19T16:26:50.300Z,5.40
2019-05-19T16:29:21.814Z,5.03
2019-05-19T16:31:53.147Z,4.70
2019-05-19T16:34:25.344Z,4.87
2019-05-19T16:36:56.346Z,5.27
2019-05-19T16:39:27.940Z,5.37
2019-05-19T16:41:58.935Z,4.73
2019-05-19T16:44:30.158Z,4.37
2019-05-19T16:47:01.209Z,4.37
2019-05-19T16:49:32.909Z,4.60
2019-05-19T16:52:03.975Z,4.47
2019-05-19T16:54:37.583Z,4.47
2019-05-19T16:57:09.221Z,4.27
2019-05-19T16:59:46.341Z,4.27
2019-05-19T17:02:17.342Z,4.47
2019-05-19T17:04:49.339Z,4.20
2019-05-19T17:07:20.727Z,4.30
2019-05-19T17:09:51.697Z,4.63
2019-05-19T17:12:22.731Z,4.60
2019-05-19T17:14:53.789Z,4.65
2019-05-19T17:17:24.817Z,4.47
2019-05-19T17:19:55.831Z,4.50
2019-05-19T17:22:28.159Z,4.90
2019-05-19T17:25:00.415Z,4.50
2019-05-19T17:27:32.677Z,4.63
2019-05-19T17:30:03.823Z,5.10
2019-05-19T17:32:35.166Z,5.20
2019-05-19T17:35:07.016Z,4.73
2019-05-19T17:37:38.954Z,4.85
2019-05-19T17:40:10.860Z,5.17
2019-05-19T17:42:42.611Z,5.17
2019-05-19T17:45:14.300Z,4.80
2019-05-19T17:47:45.817Z,5.20
2019-05-19T17:50:20.561Z,4.73
2019-05-19T17:52:51.873Z,5.13
2019-05-19T17:55:22.961Z,5.43
2019-05-19T17:57:54.387Z,5.13
2019-05-19T18:00:37.950Z,5.15
2019-05-19T18:03:09.916Z,4.77
2019-05-19T18:05:43.415Z,5.43
2019-05-19T18:08:15.954Z,5.20
2019-05-19T18:10:48.101Z,5.27
2019-05-19T18:13:19.455Z,5.23
2019-05-19T18:15:50.667Z,5.40
2019-05-19T18:18:24.621Z,5.33
2019-05-19T18:20:56.192Z,5.33
2019-05-19T18:23:28.162Z,4.63
2019-05-19T18:25:59.483Z,5.57
2019-05-19T18:28:30.613Z,5.73
2019-05-19T18:31:01.671Z,5.20
2019-05-19T18:33:33.428Z,5.17
2019-05-19T18:36:04.649Z,5.80
2019-05-19T18:38:35.890Z,5.47
2019-05-19T18:41:06.973Z,5.93
2019-05-19T18:43:38.267Z,6.03
2019-05-19T18:46:09.933Z,6.00
2019-05-19T18:48:40.978Z,5.63
2019-05-19T18:51:13.064Z,5.97
2019-05-19T18:53:44.143Z,5.70
2019-05-19T18:56:15.704Z,5.70
2019-05-19T18:58:46.872Z,5.58
2019-05-19T19:01:18.138Z,5.87
2019-05-19T19:03:49.327Z,5.87
2019-05-19T19:06:20.814Z,5.75
2019-05-19T19:08:51.974Z,5.90
2019-05-19T19:11:23.549Z,4.87
2019-05-19T19:13:55.820Z,5.55
2019-05-19T19:16:27.203Z,5.67
2019-05-19T19:18:58.320Z,5.45
2019-05-19T19:21:29.514Z,5.40
2019-05-19T19:24:01.753Z,6.47
2019-05-19T19:26:33.026Z,6.67
2019-05-19T19:29:04.061Z,6.83
2019-05-19T19:31:47.728Z,5.87
2019-05-19T19:34:08.573Z,6.13
2019-05-19T19:36:39.715Z,5.90
2019-05-19T19:39:12.427Z,6.13
2019-05-19T19:41:43.726Z,5.63
2019-05-19T19:44:14.779Z,5.90
2019-05-19T19:46:46.365Z,5.63
2019-05-19T19:49:17.553Z,5.72
2019-05-19T19:51:49.218Z,6.23
2019-05-19T19:54:20.944Z,6.30
2019-05-19T19:56:51.955Z,5.43
2019-05-19T19:59:23.295Z,6.13
2019-05-19T20:01:54.608Z,6.07
2019-05-19T20:04:26.045Z,6.30
2019-05-19T20:06:57.203Z,5.83
2019-05-19T20:09:30.651Z,5.90
2019-05-19T20:12:01.907Z,5.57
2019-05-19T20:14:32.976Z,5.37
2019-05-19T20:17:07.351Z,6.07
2019-05-19T20:19:38.670Z,5.73
2019-05-19T20:22:09.737Z,5.47
2019-05-19T20:24:41.614Z,5.67
2019-05-19T20:27:12.632Z,5.70
2019-05-19T20:29:44.044Z,4.73
2019-05-19T20:32:15.055Z,5.70
2019-05-19T20:34:46.401Z,5.60
2019-05-19T20:37:17.408Z,5.28
2019-05-19T20:39:50.958Z,5.23
2019-05-19T20:42:23.345Z,5.80
2019-05-19T20:44:54.335Z,5.60
2019-05-19T20:47:25.463Z,6.50
2019-05-19T20:49:56.466Z,5.00
2019-05-19T20:52:27.807Z,5.63
2019-05-19T20:54:58.845Z,6.27
2019-05-19T20:57:29.871Z,5.90
2019-05-19T21:00:01.147Z,5.40
2019-05-19T21:02:32.161Z,5.73
2019-05-19T21:05:03.289Z,5.30
2019-05-19T21:07:34.377Z,4.97
2019-05-19T21:10:06.395Z,5.50
2019-05-19T21:12:38.968Z,5.53
2019-05-19T21:15:10.451Z,5.63
2019-05-19T21:17:42.686Z,5.83
2019-05-19T21:20:14.308Z,5.63
2019-05-19T21:22:45.527Z,6.33
2019-05-19T21:25:16.746Z,6.90
2019-05-19T21:27:48.403Z,6.80
2019-05-19T21:30:21.760Z,6.42
2019-05-19T21:32:52.718Z,6.47
2019-05-19T21:35:24.044Z,6.58
2019-05-19T21:37:56.028Z,6.87
2019-05-19T21:40:27.028Z,6.70
2019-05-19T21:42:58.372Z,6.13
2019-05-19T21:45:29.356Z,6.55
2019-05-19T21:48:00.379Z,6.80
2019-05-19T21:50:31.949Z,6.53
2019-05-19T21:53:06.383Z,6.87
2019-05-19T21:55:36.292Z,6.30
2019-05-19T21:58:07.528Z,7.53
2019-05-19T22:00:39.078Z,6.60
2019-05-19T22:03:10.417Z,6.03
2019-05-19T22:05:52.808Z,7.33
2019-05-19T22:08:16.103Z,6.93
2019-05-19T22:10:47.270Z,6.73
2019-05-19T22:13:18.315Z,7.12
2019-05-19T22:15:49.694Z,6.83
2019-05-19T22:18:20.782Z,6.30
2019-05-19T22:20:52.100Z,7.43
2019-05-19T22:23:23.442Z,7.13
2019-05-19T22:25:54.753Z,7.37
2019-05-19T22:28:26.432Z,7.20
2019-05-19T22:30:57.690Z,7.10
2019-05-19T22:33:29.205Z,7.00
2019-05-19T22:36:00.801Z,6.80
2019-05-19T22:38:32.066Z,6.97
2019-05-19T22:41:03.130Z,7.17
2019-05-19T22:43:34.095Z,7.40
2019-05-19T22:46:05.269Z,6.87
2019-05-19T22:48:37.873Z,7.20
2019-05-19T22:51:09.014Z,6.87
2019-05-19T22:53:41.076Z,7.63
2019-05-19T22:56:12.147Z,7.73
2019-05-19T22:58:43.110Z,7.10
2019-05-19T23:01:14.688Z,7.07
2019-05-19T23:03:45.685Z,7.03
2019-05-19T23:06:17.402Z,6.60
2019-05-19T23:08:48.827Z,6.93
2019-05-19T23:11:19.979Z,7.70
2019-05-19T23:13:53.953Z,7.17
2019-05-19T23:16:25.009Z,7.40
2019-05-19T23:18:57.687Z,7.03
2019-05-19T23:21:29.567Z,6.77
2019-05-19T23:24:01.416Z,7.45
2019-05-19T23:26:32.423Z,7.47
2019-05-19T23:29:03.727Z,7.53
2019-05-19T23:31:35.116Z,7.70
2019-05-19T23:34:06.458Z,7.13
2019-05-19T23:36:37.529Z,7.27
2019-05-19T23:39:08.595Z,7.57
2019-05-19T23:41:39.568Z,7.67
2019-05-19T23:44:10.895Z,7.17
2019-05-19T23:46:42.396Z,7.83
2019-05-19T23:49:13.357Z,8.03
2019-05-19T23:51:45.352Z,7.57
2019-05-19T23:54:16.598Z,8.27
2019-05-19T23:56:48.254Z,7.37
2019-05-19T23:59:19.597Z,6.87
